createdAt,value
2018-05-21T00:00:14.180Z,44.73
2018-05-21T00:01:14.054Z,44.17
2018-05-21T00:02:13.925Z,43.69
2018-05-21T00:03:13.797Z,44.17
2018-05-21T00:04:13.675Z,43.60
2018-05-21T00:05:13.546Z,43.60
2018-05-21T00:06:13.423Z,44.64
2018-05-21T00:07:13.291Z,45.68
2018-05-21T00:08:13.164Z,45.21
2018-05-21T00:09:13.036Z,44.45
2018-05-21T00:10:12.913Z,45.12
2018-05-21T00:11:12.782Z,44.64
2018-05-21T00:12:12.659Z,44.54
2018-05-21T00:13:12.529Z,45.21
2018-05-21T00:14:12.403Z,46.06
2018-05-21T00:15:12.275Z,45.78
2018-05-21T00:16:12.150Z,44.83
2018-05-21T00:17:12.021Z,44.83
2018-05-21T00:18:11.895Z,44.54
2018-05-21T00:19:11.764Z,44.93
2018-05-21T00:20:11.640Z,45.02
2018-05-21T00:21:11.513Z,44.54
2018-05-21T00:22:11.386Z,44.17
2018-05-21T00:23:11.259Z,44.64
2018-05-21T00:24:11.128Z,45.02
2018-05-21T00:25:11.007Z,45.40
2018-05-21T00:26:10.874Z,45.21
2018-05-21T00:27:10.746Z,45.40
2018-05-21T00:28:10.621Z,44.73
2018-05-21T00:29:11.172Z,44.35
2018-05-21T00:30:10.419Z,44.35
2018-05-21T00:31:10.290Z,45.02
2018-05-21T00:32:10.164Z,45.02
2018-05-21T00:33:10.028Z,45.12
2018-05-21T00:34:09.905Z,45.50
2018-05-21T00:35:09.790Z,45.21
2018-05-21T00:36:09.657Z,45.28
2018-05-21T00:37:09.525Z,44.90
2018-05-21T00:38:09.406Z,46.33
2018-05-21T00:39:09.271Z,46.64
2018-05-21T00:40:09.668Z,46.33
2018-05-21T00:41:09.016Z,46.64
2018-05-21T00:42:08.894Z,46.14
2018-05-21T00:43:08.766Z,44.81
2018-05-21T00:44:08.645Z,43.98
2018-05-21T00:45:08.501Z,43.57
2018-05-21T00:46:09.177Z,43.48
2018-05-21T00:47:09.170Z,43.48
2018-05-21T00:48:08.121Z,43.86
2018-05-21T00:49:07.989Z,45.38
2018-05-21T00:50:07.874Z,45.00
2018-05-21T00:51:07.751Z,44.90
2018-05-21T00:52:07.611Z,44.62
2018-05-21T00:53:07.497Z,43.67
2018-05-21T00:54:07.354Z,43.38
2018-05-21T00:55:07.235Z,43.57
2018-05-21T00:56:07.101Z,43.29
2018-05-21T00:57:06.969Z,43.38
2018-05-21T00:58:06.851Z,42.72
2018-05-21T00:59:06.726Z,42.43
2018-05-21T01:00:06.596Z,43.19
2018-05-21T01:01:07.173Z,43.69
2018-05-21T01:02:06.339Z,44.81
2018-05-21T01:03:06.208Z,46.73
2018-05-21T01:04:06.677Z,46.90
2018-05-21T01:05:05.957Z,46.33
2018-05-21T01:06:05.839Z,46.51
2018-05-21T01:07:05.708Z,46.42
2018-05-21T01:08:05.577Z,46.14
2018-05-21T01:09:05.452Z,45.85
2018-05-21T01:10:06.175Z,45.09
2018-05-21T01:11:05.200Z,45.00
2018-05-21T01:12:05.059Z,44.53
2018-05-21T01:13:04.941Z,44.62
2018-05-21T01:14:04.816Z,45.00
2018-05-21T01:15:04.681Z,44.90
2018-05-21T01:16:04.551Z,44.43
2018-05-21T01:17:04.432Z,44.90
2018-05-21T01:18:04.296Z,45.19
2018-05-21T01:19:04.179Z,45.95
2018-05-21T01:20:04.050Z,46.04
2018-05-21T01:21:03.921Z,46.35
2018-05-21T01:22:04.683Z,47.28
2018-05-21T01:23:03.656Z,49.29
2018-05-21T01:24:03.528Z,49.96
2018-05-21T01:25:03.404Z,50.24
2018-05-21T01:26:03.283Z,50.15
2018-05-21T01:27:03.158Z,50.43
2018-05-21T01:28:03.021Z,49.87
2018-05-21T01:29:02.896Z,49.20
2018-05-21T01:30:02.769Z,49.77
2018-05-21T01:31:02.631Z,50.15
2018-05-21T01:32:02.515Z,50.15
2018-05-21T01:33:02.396Z,50.24
2018-05-21T01:34:02.261Z,50.34
2018-05-21T01:35:02.219Z,50.43
2018-05-21T01:36:02.015Z,51.76
2018-05-21T01:37:01.870Z,52.81
2018-05-21T01:38:01.755Z,53.76
2018-05-21T01:39:01.632Z,53.00
2018-05-21T01:40:01.494Z,53.47
2018-05-21T01:41:01.376Z,52.91
2018-05-21T01:42:01.237Z,51.76
2018-05-21T01:43:01.673Z,51.76
2018-05-21T01:44:00.993Z,51.67
2018-05-21T01:45:00.871Z,52.24
2018-05-21T01:46:00.736Z,53.28
2018-05-21T01:47:00.615Z,52.91
2018-05-21T01:48:00.485Z,52.53
2018-05-21T01:49:00.353Z,52.14
2018-05-21T01:50:00.220Z,52.24
2018-05-21T01:51:00.094Z,51.95
2018-05-21T01:51:59.977Z,51.39
2018-05-21T01:52:59.848Z,51.48
2018-05-21T01:53:59.723Z,52.24
2018-05-21T01:54:59.590Z,52.53
2018-05-21T01:55:59.469Z,52.33
2018-05-21T01:56:59.330Z,51.76
2018-05-21T01:57:59.203Z,51.86
2018-05-21T01:58:59.078Z,51.57
2018-05-21T01:59:58.906Z,50.91
2018-05-21T02:00:58.776Z,51.20
2018-05-21T02:01:58.659Z,51.67
2018-05-21T02:02:58.525Z,52.81
2018-05-21T02:03:58.397Z,55.85
2018-05-21T02:04:58.281Z,55.47
2018-05-21T02:05:58.146Z,54.52
2018-05-21T02:06:58.015Z,54.33
2018-05-21T02:07:57.889Z,53.95
2018-05-21T02:08:57.763Z,53.76
2018-05-21T02:09:57.637Z,54.61
2018-05-21T02:10:57.517Z,54.71
2018-05-21T02:11:57.382Z,54.43
2018-05-21T02:12:57.256Z,54.90
2018-05-21T02:13:57.128Z,56.51
2018-05-21T02:14:56.999Z,53.76
2018-05-21T02:15:56.873Z,52.62
2018-05-21T02:16:56.747Z,52.50
2018-05-21T02:17:56.618Z,52.05
2018-05-21T02:18:56.491Z,50.89
2018-05-21T02:19:56.372Z,51.48
2018-05-21T02:20:56.239Z,51.67
2018-05-21T02:21:56.109Z,51.76
2018-05-21T02:22:55.986Z,50.05
2018-05-21T02:23:55.857Z,49.93
2018-05-21T02:24:55.732Z,50.62
2018-05-21T02:25:55.602Z,50.72
2018-05-21T02:26:55.473Z,51.67
2018-05-21T02:27:55.347Z,51.57
2018-05-21T02:28:55.222Z,51.86
2018-05-21T02:29:55.096Z,51.10
2018-05-21T02:30:54.963Z,50.15
2018-05-21T02:31:54.839Z,50.24
2018-05-21T02:32:54.713Z,50.51
2018-05-21T02:33:54.583Z,50.05
2018-05-21T02:34:54.455Z,50.15
2018-05-21T02:35:54.327Z,50.72
2018-05-21T02:36:54.208Z,50.43
2018-05-21T02:37:54.075Z,51.26
2018-05-21T02:38:53.947Z,51.45
2018-05-21T02:39:53.818Z,51.83
2018-05-21T02:40:53.692Z,51.74
2018-05-21T02:41:53.564Z,51.93
2018-05-21T02:42:53.439Z,51.74
2018-05-21T02:43:53.309Z,51.74
2018-05-21T02:44:53.181Z,52.40
2018-05-21T02:45:53.056Z,52.69
2018-05-21T02:46:52.931Z,53.07
2018-05-21T02:47:52.802Z,52.97
2018-05-21T02:48:55.259Z,53.45
2018-05-21T02:49:52.544Z,55.25
2018-05-21T02:50:52.419Z,55.82
2018-05-21T02:51:52.290Z,57.24
2018-05-21T02:52:52.162Z,57.24
2018-05-21T02:53:52.037Z,56.87
2018-05-21T02:54:51.910Z,56.10
2018-05-21T02:55:51.782Z,56.68
2018-05-21T02:56:51.655Z,57.53
2018-05-21T02:57:51.525Z,56.29
2018-05-21T02:58:51.401Z,55.35
2018-05-21T02:59:51.270Z,54.58
2018-05-21T03:00:51.142Z,54.49
2018-05-21T03:01:51.018Z,54.87
2018-05-21T03:02:50.884Z,54.97
2018-05-21T03:03:50.761Z,55.63
2018-05-21T03:04:50.633Z,54.97
2018-05-21T03:05:50.505Z,53.83
2018-05-21T03:06:50.377Z,53.26
2018-05-21T03:07:50.248Z,54.78
2018-05-21T03:08:50.124Z,54.78
2018-05-21T03:09:49.992Z,55.54
2018-05-21T03:10:49.869Z,54.68
2018-05-21T03:11:49.738Z,53.45
2018-05-21T03:12:49.612Z,52.78
2018-05-21T03:13:49.485Z,54.02
2018-05-21T03:14:49.360Z,55.25
2018-05-21T03:15:49.228Z,55.63
2018-05-21T03:16:49.102Z,56.49
2018-05-21T03:17:48.974Z,61.71
2018-05-21T03:18:48.848Z,62.56
2018-05-21T03:19:48.720Z,61.80
2018-05-21T03:20:48.593Z,61.14
2018-05-21T03:21:48.467Z,59.33
2018-05-21T03:22:48.337Z,60.76
2018-05-21T03:23:48.213Z,59.33
2018-05-21T03:24:48.083Z,57.81
2018-05-21T03:25:47.957Z,57.53
2018-05-21T03:26:47.827Z,57.62
2018-05-21T03:27:47.698Z,57.06
2018-05-21T03:28:47.577Z,56.77
2018-05-21T03:29:47.444Z,57.15
2018-05-21T03:30:47.319Z,56.49
2018-05-21T03:31:47.200Z,56.39
2018-05-21T03:32:47.062Z,57.15
2018-05-21T03:33:46.934Z,56.96
2018-05-21T03:34:46.805Z,60.47
2018-05-21T03:35:46.681Z,60.66
2018-05-21T03:36:46.549Z,58.95
2018-05-21T03:37:46.420Z,56.49
2018-05-21T03:38:46.293Z,54.97
2018-05-21T03:39:46.163Z,54.21
2018-05-21T03:40:46.039Z,54.39
2018-05-21T03:41:45.910Z,54.21
2018-05-21T03:42:45.784Z,54.68
2018-05-21T03:43:45.653Z,54.68
2018-05-21T03:44:45.535Z,54.87
2018-05-21T03:45:45.396Z,55.73
2018-05-21T03:46:45.273Z,55.44
2018-05-21T03:47:45.141Z,54.97
2018-05-21T03:48:45.017Z,54.87
2018-05-21T03:49:44.886Z,54.58
2018-05-21T03:50:44.759Z,53.45
2018-05-21T03:51:44.633Z,53.35
2018-05-21T03:52:44.503Z,53.35
2018-05-21T03:53:44.378Z,53.26
2018-05-21T03:54:44.249Z,54.78
2018-05-21T03:55:44.121Z,56.39
2018-05-21T03:56:43.992Z,56.49
2018-05-21T03:57:43.863Z,56.39
2018-05-21T03:58:43.739Z,55.82
2018-05-21T03:59:43.610Z,55.91
2018-05-21T04:00:43.483Z,55.35
2018-05-21T04:01:43.353Z,54.78
2018-05-21T04:02:43.229Z,55.63
2018-05-21T04:03:43.097Z,54.78
2018-05-21T04:04:42.969Z,54.87
2018-05-21T04:05:42.842Z,54.78
2018-05-21T04:06:42.714Z,55.06
2018-05-21T04:07:42.587Z,53.64
2018-05-21T04:08:42.462Z,53.73
2018-05-21T04:09:42.332Z,55.82
2018-05-21T04:10:42.204Z,56.01
2018-05-21T04:11:42.078Z,57.24
2018-05-21T04:12:41.951Z,59.33
2018-05-21T04:13:41.819Z,60.19
2018-05-21T04:14:41.694Z,59.43
2018-05-21T04:15:41.566Z,58.95
2018-05-21T04:16:41.436Z,58.86
2018-05-21T04:17:41.311Z,60.76
2018-05-21T04:18:41.199Z,60.76
2018-05-21T04:19:41.053Z,60.47
2018-05-21T04:20:40.933Z,59.81
2018-05-21T04:21:40.801Z,59.24
2018-05-21T04:22:40.670Z,57.72
2018-05-21T04:23:40.543Z,57.24
2018-05-21T04:24:40.415Z,56.58
2018-05-21T04:25:40.390Z,55.82
2018-05-21T04:26:40.158Z,54.58
2018-05-21T04:27:40.039Z,54.39
2018-05-21T04:28:39.912Z,54.58
2018-05-21T04:29:39.779Z,55.73
2018-05-21T04:30:39.650Z,56.29
2018-05-21T04:31:39.523Z,54.78
2018-05-21T04:32:39.393Z,52.78
2018-05-21T04:33:39.272Z,53.35
2018-05-21T04:34:39.140Z,53.07
2018-05-21T04:35:39.014Z,52.50
2018-05-21T04:36:38.885Z,51.64
2018-05-21T04:37:38.757Z,49.18
2018-05-21T04:38:38.632Z,51.01
2018-05-21T04:39:38.502Z,52.33
2018-05-21T04:40:38.375Z,53.00
2018-05-21T04:41:38.248Z,53.85
2018-05-21T04:42:38.120Z,56.13
2018-05-21T04:43:37.995Z,57.46
2018-05-21T04:44:37.863Z,60.88
2018-05-21T04:45:37.737Z,62.21
2018-05-21T04:46:37.612Z,62.88
2018-05-21T04:47:37.490Z,62.59
2018-05-21T04:48:37.360Z,73.71
2018-05-21T04:49:37.231Z,85.77
2018-05-21T04:50:37.104Z,92.71
2018-05-21T04:51:36.976Z,92.51
2018-05-21T04:52:36.850Z,89.67
2018-05-21T04:53:36.722Z,90.90
2018-05-21T04:54:36.593Z,89.67
2018-05-21T04:55:36.469Z,92.04
2018-05-21T04:56:36.341Z,90.90
2018-05-21T04:57:36.215Z,81.16
2018-05-21T04:58:36.091Z,85.81
2018-05-21T04:59:35.961Z,90.47
2018-05-21T05:00:35.833Z,99.11
2018-05-21T05:01:35.707Z,95.41
2018-05-21T05:02:35.582Z,92.37
2018-05-21T05:03:35.483Z,92.66
2018-05-21T05:04:35.329Z,90.66
2018-05-21T05:05:35.207Z,92.41
2018-05-21T05:06:35.074Z,93.55
2018-05-21T05:07:34.949Z,91.66
2018-05-21T05:08:34.827Z,92.61
2018-05-21T05:09:34.696Z,99.99
2018-05-21T05:10:34.568Z,99.99
2018-05-21T05:11:34.449Z,99.99
2018-05-21T05:12:34.317Z,99.99
2018-05-21T05:13:34.198Z,99.99
2018-05-21T05:14:34.067Z,99.99
2018-05-21T05:15:33.938Z,99.99
2018-05-21T05:16:33.823Z,99.99
2018-05-21T05:17:33.690Z,99.99
2018-05-21T05:18:33.566Z,99.99
2018-05-21T05:19:33.434Z,99.99
2018-05-21T05:20:33.322Z,99.99
2018-05-21T05:21:33.185Z,99.99
2018-05-21T05:22:33.064Z,99.99
2018-05-21T05:23:32.936Z,99.99
2018-05-21T05:24:32.814Z,99.99
2018-05-21T05:25:32.681Z,99.99
2018-05-21T05:26:32.591Z,99.99
2018-05-21T05:27:32.430Z,99.99
2018-05-21T05:28:32.312Z,99.99
2018-05-21T05:29:32.182Z,99.99
2018-05-21T05:30:32.062Z,99.99
2018-05-21T05:31:31.935Z,99.99
2018-05-21T05:32:31.807Z,99.99
2018-05-21T05:33:31.680Z,99.99
2018-05-21T05:34:31.553Z,99.99
2018-05-21T05:35:31.429Z,99.99
2018-05-21T05:36:31.303Z,99.99
2018-05-21T05:37:31.179Z,99.99
2018-05-21T05:38:31.061Z,99.99
2018-05-21T05:39:30.929Z,99.99
2018-05-21T05:40:30.805Z,99.99
2018-05-21T05:41:30.680Z,99.99
2018-05-21T05:42:30.554Z,99.99
2018-05-21T05:43:30.431Z,99.99
2018-05-21T05:44:30.302Z,99.99
2018-05-21T05:45:30.189Z,99.99
2018-05-21T05:46:30.053Z,99.99
2018-05-21T05:47:29.935Z,99.99
2018-05-21T05:48:29.802Z,99.99
2018-05-21T05:49:29.683Z,99.99
2018-05-21T05:50:29.553Z,99.99
2018-05-21T05:51:29.427Z,99.99
2018-05-21T05:52:29.305Z,99.99
2018-05-21T05:53:29.182Z,99.99
2018-05-21T05:54:29.051Z,99.99
2018-05-21T05:55:28.933Z,99.99
2018-05-21T05:56:28.805Z,99.99
2018-05-21T05:57:28.757Z,99.99
2018-05-21T05:58:28.556Z,99.99
2018-05-21T05:59:28.432Z,99.99
2018-05-21T06:00:28.305Z,99.99
2018-05-21T06:01:28.183Z,99.99
2018-05-21T06:02:28.058Z,99.99
2018-05-21T06:03:27.961Z,99.99
2018-05-21T06:04:27.808Z,99.99
2018-05-21T06:05:27.682Z,99.99
2018-05-21T06:06:27.555Z,99.99
2018-05-21T06:07:27.433Z,99.99
2018-05-21T06:08:27.311Z,99.99
2018-05-21T06:09:27.186Z,99.99
2018-05-21T06:10:27.060Z,99.99
2018-05-21T06:11:26.938Z,99.99
2018-05-21T06:12:26.812Z,99.99
2018-05-21T06:13:26.689Z,99.99
2018-05-21T06:14:26.561Z,99.99
2018-05-21T06:15:26.439Z,99.99
2018-05-21T06:16:26.351Z,99.99
2018-05-21T06:17:26.198Z,99.99
2018-05-21T06:18:26.068Z,99.99
2018-05-21T06:19:25.940Z,99.99
2018-05-21T06:20:25.815Z,99.99
2018-05-21T06:21:25.692Z,99.99
2018-05-21T06:22:25.569Z,99.99
2018-05-21T06:23:25.446Z,99.99
2018-05-21T06:24:25.326Z,99.99
2018-05-21T06:25:25.198Z,99.99
2018-05-21T06:26:25.074Z,99.99
2018-05-21T06:27:24.949Z,99.99
2018-05-21T06:28:24.828Z,99.99
2018-05-21T06:29:24.706Z,99.99
2018-05-21T06:30:24.579Z,99.99
2018-05-21T06:31:24.454Z,99.99
2018-05-21T06:32:24.330Z,99.99
2018-05-21T06:33:24.208Z,99.99
2018-05-21T06:34:24.278Z,99.99
2018-05-21T06:35:23.961Z,99.99
2018-05-21T06:36:23.837Z,99.99
2018-05-21T06:37:23.713Z,99.99
2018-05-21T06:38:23.608Z,99.99
2018-05-21T06:39:23.465Z,99.99
2018-05-21T06:40:23.341Z,99.99
2018-05-21T06:41:23.218Z,99.99
2018-05-21T06:42:23.095Z,99.99
2018-05-21T06:43:22.970Z,99.99
2018-05-21T06:44:22.847Z,99.99
2018-05-21T06:45:22.731Z,99.99
2018-05-21T06:46:22.604Z,99.99
2018-05-21T06:47:22.477Z,99.99
2018-05-21T06:48:22.356Z,99.99
2018-05-21T06:49:22.229Z,99.99
2018-05-21T06:50:22.109Z,99.99
2018-05-21T06:51:21.981Z,99.99
2018-05-21T06:52:21.860Z,99.99
2018-05-21T06:53:21.736Z,99.99
2018-05-21T06:54:21.610Z,99.99
2018-05-21T06:55:21.492Z,96.98
2018-05-21T06:56:21.366Z,99.99
2018-05-21T06:57:21.246Z,99.99
2018-05-21T06:58:21.121Z,99.99
2018-05-21T06:59:20.995Z,99.04
2018-05-21T07:00:20.876Z,99.80
2018-05-21T07:01:20.751Z,97.03
2018-05-21T07:02:20.628Z,94.55
2018-05-21T07:03:20.505Z,88.92
2018-05-21T07:04:20.382Z,95.12
2018-05-21T07:05:20.272Z,97.23
2018-05-21T07:06:20.143Z,96.46
2018-05-21T07:07:20.017Z,98.37
2018-05-21T07:08:19.891Z,98.28
2018-05-21T07:09:19.769Z,91.11
2018-05-21T07:10:19.644Z,88.73
2018-05-21T07:11:19.523Z,92.45
2018-05-21T07:12:19.403Z,94.70
2018-05-21T07:13:19.276Z,82.46
2018-05-21T07:14:19.157Z,84.66
2018-05-21T07:15:19.032Z,83.90
2018-05-21T07:16:18.908Z,88.10
2018-05-21T07:17:18.786Z,84.95
2018-05-21T07:18:18.689Z,88.48
2018-05-21T07:19:18.543Z,98.85
2018-05-21T07:20:18.420Z,99.90
2018-05-21T07:21:18.300Z,86.14
2018-05-21T07:22:18.176Z,83.46
2018-05-21T07:23:18.054Z,81.65
2018-05-21T07:24:17.948Z,85.18
2018-05-21T07:25:17.807Z,75.71
2018-05-21T07:26:17.685Z,72.94
2018-05-21T07:27:17.564Z,71.42
2018-05-21T07:28:17.444Z,72.28
2018-05-21T07:29:17.321Z,72.94
2018-05-21T07:30:17.205Z,75.52
2018-05-21T07:31:17.078Z,77.67
2018-05-21T07:32:16.963Z,79.68
2018-05-21T07:33:16.833Z,76.90
2018-05-21T07:34:16.713Z,78.86
2018-05-21T07:35:16.590Z,77.90
2018-05-21T07:36:16.469Z,77.51
2018-05-21T07:37:16.350Z,75.98
2018-05-21T07:38:16.225Z,76.40
2018-05-21T07:39:16.110Z,77.55
2018-05-21T07:40:15.983Z,78.61
2018-05-21T07:41:15.860Z,74.82
2018-05-21T07:42:15.740Z,71.62
2018-05-21T07:43:15.618Z,71.14
2018-05-21T07:44:15.498Z,69.51
2018-05-21T07:45:15.401Z,69.13
2018-05-21T07:46:15.252Z,71.17
2018-05-21T07:47:15.140Z,70.98
2018-05-21T07:48:15.014Z,68.59
2018-05-21T07:49:14.892Z,66.77
2018-05-21T07:50:14.774Z,65.14
2018-05-21T07:51:14.684Z,65.71
2018-05-21T07:52:14.531Z,64.89
2018-05-21T07:53:14.412Z,65.23
2018-05-21T07:54:14.288Z,65.33
2018-05-21T07:55:14.168Z,68.33
2018-05-21T07:56:14.053Z,67.85
2018-05-21T07:57:13.931Z,63.35
2018-05-21T07:58:13.814Z,64.89
2018-05-21T07:59:13.689Z,63.16
2018-05-21T08:00:13.568Z,62.36
2018-05-21T08:01:13.446Z,63.89
2018-05-21T08:02:13.331Z,63.70
2018-05-21T08:03:13.204Z,62.17
2018-05-21T08:04:13.088Z,62.23
2018-05-21T08:05:13.015Z,64.34
2018-05-21T08:06:12.848Z,67.79
2018-05-21T08:07:12.726Z,69.54
2018-05-21T08:08:12.607Z,68.40
2018-05-21T08:09:12.484Z,67.63
2018-05-21T08:10:12.363Z,67.38
2018-05-21T08:11:12.244Z,69.20
2018-05-21T08:12:12.124Z,70.83
2018-05-21T08:13:12.004Z,71.02
2018-05-21T08:14:11.886Z,68.87
2018-05-21T08:15:11.763Z,68.84
2018-05-21T08:16:11.644Z,73.15
2018-05-21T08:17:11.525Z,72.29
2018-05-21T08:18:11.404Z,70.28
2018-05-21T08:19:11.283Z,69.74
2018-05-21T08:20:11.168Z,72.32
2018-05-21T08:21:11.042Z,74.72
2018-05-21T08:22:11.030Z,75.48
2018-05-21T08:23:10.804Z,73.57
2018-05-21T08:24:10.682Z,75.29
2018-05-21T08:25:10.563Z,74.97
2018-05-21T08:26:10.443Z,79.37
2018-05-21T08:27:10.325Z,85.79
2018-05-21T08:28:10.202Z,86.17
2018-05-21T08:29:10.087Z,81.29
2018-05-21T08:30:09.962Z,77.75
2018-05-21T08:31:09.842Z,74.77
2018-05-21T08:32:09.721Z,75.07
2018-05-21T08:33:09.599Z,74.49
2018-05-21T08:34:09.479Z,73.40
2018-05-21T08:35:09.360Z,76.94
2018-05-21T08:36:09.241Z,79.33
2018-05-21T08:37:09.124Z,79.72
2018-05-21T08:38:08.999Z,81.29
2018-05-21T08:39:08.883Z,76.27
2018-05-21T08:40:08.757Z,79.81
2018-05-21T08:41:08.639Z,80.10
2018-05-21T08:42:08.519Z,79.37
2018-05-21T08:43:08.405Z,76.37
2018-05-21T08:44:08.278Z,72.25
2018-05-21T08:45:08.172Z,69.95
2018-05-21T08:46:08.033Z,68.74
2018-05-21T08:47:07.914Z,68.07
2018-05-21T08:48:07.803Z,66.74
2018-05-21T08:49:07.676Z,69.32
2018-05-21T08:50:07.554Z,71.42
2018-05-21T08:51:07.432Z,70.50
2018-05-21T08:52:07.311Z,70.79
2018-05-21T08:53:07.194Z,70.12
2018-05-21T08:54:07.070Z,66.16
2018-05-21T08:55:07.003Z,63.96
2018-05-21T08:56:06.835Z,61.08
2018-05-21T08:57:06.712Z,62.11
2018-05-21T08:58:06.590Z,63.73
2018-05-21T08:59:06.471Z,65.78
2018-05-21T09:00:06.348Z,65.01
2018-05-21T09:01:06.229Z,61.47
2018-05-21T09:02:06.106Z,63.16
2018-05-21T09:03:05.990Z,64.79
2018-05-21T09:04:05.864Z,65.11
2018-05-21T09:05:05.745Z,64.72
2018-05-21T09:06:05.627Z,65.78
2018-05-21T09:07:05.510Z,66.54
2018-05-21T09:08:05.385Z,69.17
2018-05-21T09:09:05.266Z,66.00
2018-05-21T09:10:05.157Z,65.33
2018-05-21T09:11:05.020Z,67.63
2018-05-21T09:12:04.901Z,65.62
2018-05-21T09:13:04.785Z,63.89
2018-05-21T09:14:04.657Z,64.98
2018-05-21T09:15:04.590Z,64.79
2018-05-21T09:16:04.418Z,63.73
2018-05-21T09:17:04.390Z,60.67
2018-05-21T09:18:04.174Z,61.43
2018-05-21T09:19:04.057Z,60.67
2018-05-21T09:20:03.933Z,58.37
2018-05-21T09:21:03.815Z,58.94
2018-05-21T09:22:03.693Z,58.46
2018-05-21T09:23:03.570Z,58.84
2018-05-21T09:24:03.452Z,57.60
2018-05-21T09:25:03.334Z,57.70
2018-05-21T09:26:03.220Z,57.79
2018-05-21T09:27:03.093Z,58.84
2018-05-21T09:28:02.970Z,60.41
2018-05-21T09:29:02.852Z,60.79
2018-05-21T09:30:02.735Z,58.78
2018-05-21T09:31:02.610Z,56.26
2018-05-21T09:32:02.491Z,58.37
2018-05-21T09:33:02.370Z,59.42
2018-05-21T09:34:02.249Z,59.93
2018-05-21T09:35:02.156Z,58.69
2018-05-21T09:36:02.018Z,61.94
2018-05-21T09:37:01.890Z,62.84
2018-05-21T09:38:01.850Z,58.81
2018-05-21T09:39:01.652Z,57.37
2018-05-21T09:40:01.536Z,55.62
2018-05-21T09:41:01.421Z,53.70
2018-05-21T09:42:01.360Z,56.26
2018-05-21T09:43:01.170Z,56.74
2018-05-21T09:44:01.052Z,57.60
2018-05-21T09:45:01.238Z,59.61
2018-05-21T09:46:00.812Z,59.52
2018-05-21T09:47:00.693Z,57.92
2018-05-21T09:48:00.570Z,57.15
2018-05-21T09:49:00.453Z,58.30
2018-05-21T09:50:00.333Z,58.20
2018-05-21T09:51:00.210Z,57.43
2018-05-21T09:52:00.091Z,55.64
2018-05-21T09:53:00.029Z,57.95
2018-05-21T09:53:59.849Z,57.75
2018-05-21T09:54:59.729Z,56.57
2018-05-21T09:55:59.610Z,56.76
2018-05-21T09:56:59.491Z,55.11
2018-05-21T09:57:59.439Z,54.72
2018-05-21T09:58:59.250Z,54.05
2018-05-21T09:59:59.132Z,53.96
2018-05-21T10:00:59.013Z,55.21
2018-05-21T10:01:58.896Z,56.35
2018-05-21T10:02:58.771Z,57.72
2018-05-21T10:03:58.651Z,55.11
2018-05-21T10:04:58.532Z,55.71
2018-05-21T10:05:58.415Z,55.90
2018-05-21T10:06:58.290Z,53.79
2018-05-21T10:07:58.170Z,54.68
2018-05-21T10:08:58.053Z,54.39
2018-05-21T10:09:57.929Z,53.91
2018-05-21T10:10:57.812Z,55.83
2018-05-21T10:11:57.694Z,55.62
2018-05-21T10:12:57.569Z,55.71
2018-05-21T10:13:57.450Z,56.38
2018-05-21T10:14:57.330Z,57.95
2018-05-21T10:15:57.210Z,56.98
2018-05-21T10:16:57.091Z,56.44
2018-05-21T10:17:56.974Z,58.10
2018-05-21T10:18:56.899Z,57.33
2018-05-21T10:19:56.744Z,56.21
2018-05-21T10:20:56.614Z,52.94
2018-05-21T10:21:56.494Z,56.52
2018-05-21T10:22:56.375Z,56.04
2018-05-21T10:23:56.258Z,52.68
2018-05-21T10:24:56.143Z,53.35
2018-05-21T10:25:56.021Z,53.92
2018-05-21T10:26:55.902Z,53.52
2018-05-21T10:27:55.781Z,53.61
2018-05-21T10:28:55.664Z,53.52
2018-05-21T10:29:55.544Z,51.88
2018-05-21T10:30:55.426Z,52.17
2018-05-21T10:31:55.308Z,52.55
2018-05-21T10:32:55.193Z,51.88
2018-05-21T10:33:55.075Z,51.79
2018-05-21T10:34:54.951Z,49.79
2018-05-21T10:35:54.836Z,51.53
2018-05-21T10:36:54.722Z,49.41
2018-05-21T10:37:54.596Z,47.49
2018-05-21T10:38:54.478Z,45.37
2018-05-21T10:39:54.362Z,47.58
2018-05-21T10:40:54.246Z,47.94
2018-05-21T10:41:54.128Z,46.41
2018-05-21T10:42:54.006Z,48.04
2018-05-21T10:43:53.977Z,47.36
2018-05-21T10:44:53.777Z,47.85
2018-05-21T10:45:53.654Z,48.83
2018-05-21T10:46:53.537Z,50.76
2018-05-21T10:47:53.421Z,48.83
2018-05-21T10:48:53.301Z,48.93
2018-05-21T10:49:53.186Z,47.30
2018-05-21T10:50:53.066Z,46.74
2018-05-21T10:51:52.952Z,47.61
2018-05-21T10:52:52.831Z,48.59
2018-05-21T10:53:52.713Z,45.80
2018-05-21T10:54:52.596Z,46.06
2018-05-21T10:55:52.477Z,50.04
2018-05-21T10:56:52.365Z,47.05
2018-05-21T10:57:52.245Z,45.59
2018-05-21T10:58:52.128Z,43.95
2018-05-21T10:59:52.014Z,44.05
2018-05-21T11:00:51.893Z,46.19
2018-05-21T11:01:51.777Z,45.51
2018-05-21T11:02:51.661Z,44.07
2018-05-21T11:03:51.545Z,46.11
2018-05-21T11:04:51.428Z,42.65
2018-05-21T11:05:51.312Z,40.34
2018-05-21T11:06:51.193Z,45.05
2018-05-21T11:07:51.079Z,47.65
2018-05-21T11:08:50.961Z,45.22
2018-05-21T11:09:50.847Z,43.78
2018-05-21T11:10:50.731Z,45.49
2018-05-21T11:11:50.613Z,45.39
2018-05-21T11:12:50.499Z,45.28
2018-05-21T11:13:50.380Z,46.09
2018-05-21T11:14:50.265Z,47.51
2018-05-21T11:15:50.147Z,47.61
2018-05-21T11:16:50.029Z,49.60
2018-05-21T11:17:49.972Z,51.90
2018-05-21T11:18:49.797Z,53.17
2018-05-21T11:19:49.678Z,52.40
2018-05-21T11:20:49.559Z,50.68
2018-05-21T11:21:49.447Z,47.71
2018-05-21T11:22:49.328Z,46.74
2018-05-21T11:23:49.215Z,45.23
2018-05-21T11:24:49.090Z,49.22
2018-05-21T11:25:48.975Z,50.23
2018-05-21T11:26:48.854Z,48.52
2018-05-21T11:27:48.737Z,44.74
2018-05-21T11:28:48.621Z,46.78
2018-05-21T11:29:48.509Z,49.22
2018-05-21T11:30:48.388Z,47.99
2018-05-21T11:31:48.304Z,43.85
2018-05-21T11:32:48.153Z,44.52
2018-05-21T11:33:48.035Z,44.62
2018-05-21T11:34:47.917Z,44.42
2018-05-21T11:35:47.799Z,45.70
2018-05-21T11:36:47.685Z,43.19
2018-05-21T11:37:47.572Z,43.79
2018-05-21T11:38:47.452Z,44.22
2018-05-21T11:39:47.335Z,42.39
2018-05-21T11:40:47.221Z,42.75
2018-05-21T11:41:47.106Z,39.74
2018-05-21T11:42:46.989Z,41.40
2018-05-21T11:43:46.873Z,40.32
2018-05-21T11:44:46.758Z,39.43
2018-05-21T11:45:46.642Z,40.63
2018-05-21T11:46:46.527Z,45.84
2018-05-21T11:47:46.414Z,45.39
2018-05-21T11:48:46.301Z,44.06
2018-05-21T11:49:46.181Z,43.27
2018-05-21T11:50:46.141Z,44.35
2018-05-21T11:51:45.954Z,41.72
2018-05-21T11:52:45.837Z,42.07
2018-05-21T11:53:45.721Z,43.99
2018-05-21T11:54:45.606Z,43.71
2018-05-21T11:55:45.491Z,42.69
2018-05-21T11:56:45.374Z,43.77
2018-05-21T11:57:45.262Z,43.60
2018-05-21T11:58:45.146Z,41.36
2018-05-21T11:59:45.031Z,42.93
2018-05-21T12:00:44.917Z,42.19
2018-05-21T12:01:44.798Z,42.48
2018-05-21T12:02:44.706Z,38.97
2018-05-21T12:03:44.569Z,39.09
2018-05-21T12:04:44.459Z,42.54
2018-05-21T12:05:44.337Z,39.16
2018-05-21T12:06:44.227Z,39.28
2018-05-21T12:07:44.153Z,42.18
2018-05-21T12:08:43.995Z,41.09
2018-05-21T12:09:43.880Z,42.77
2018-05-21T12:10:43.766Z,42.50
2018-05-21T12:11:43.649Z,39.03
2018-05-21T12:12:43.537Z,39.90
2018-05-21T12:13:43.421Z,39.29
2018-05-21T12:14:43.307Z,38.31
2018-05-21T12:15:43.190Z,39.18
2018-05-21T12:16:43.077Z,38.99
2018-05-21T12:17:42.961Z,37.71
2018-05-21T12:18:42.849Z,40.17
2018-05-21T12:19:42.733Z,41.15
2018-05-21T12:20:42.619Z,39.24
2018-05-21T12:21:42.502Z,38.97
2018-05-21T12:22:42.390Z,36.55
2018-05-21T12:23:42.276Z,36.80
2018-05-21T12:24:42.163Z,39.03
2018-05-21T12:25:42.053Z,39.01
2018-05-21T12:26:41.931Z,39.04
2018-05-21T12:27:41.818Z,37.15
2018-05-21T12:28:41.765Z,37.55
2018-05-21T12:29:41.592Z,36.58
2018-05-21T12:30:41.477Z,35.23
2018-05-21T12:31:41.363Z,36.80
2018-05-21T12:32:41.251Z,36.99
2018-05-21T12:33:41.134Z,36.60
2018-05-21T12:34:41.026Z,36.49
2018-05-21T12:35:40.911Z,36.12
2018-05-21T12:36:40.800Z,36.88
2018-05-21T12:37:40.686Z,38.91
2018-05-21T12:38:40.570Z,37.38
2018-05-21T12:39:40.471Z,36.41
2018-05-21T12:40:40.351Z,33.18
2018-05-21T12:41:40.231Z,34.79
2018-05-21T12:42:40.118Z,39.32
2018-05-21T12:43:40.009Z,38.14
2018-05-21T12:44:39.891Z,38.06
2018-05-21T12:45:39.781Z,41.46
2018-05-21T12:46:39.667Z,39.16
2018-05-21T12:47:39.553Z,39.28
2018-05-21T12:48:39.446Z,37.75
2018-05-21T12:49:39.346Z,38.27
2018-05-21T12:50:39.215Z,38.62